sensor_id;sensor_type;location;lat;lon;timestamp;pressure;altitude;pressure_sealevel;temperature;humidity
42647;BME280;31319;53.678;-6.254;2023-03-03T00:01:29;102934.53;;;14.89;61.54
42647;BME280;31319;53.678;-6.254;2023-03-03T00:03:56;102940.56;;;14.91;61.48
42647;BME280;31319;53.678;-6.254;2023-03-03T00:06:22;102936.91;;;14.95;61.73
42647;BME280;31319;53.678;-6.254;2023-03-03T00:08:49;102949.63;;;14.91;62.30
42647;BME280;31319;53.678;-6.254;2023-03-03T00:11:14;102949.00;;;14.99;61.96
42647;BME280;31319;53.678;-6.254;2023-03-03T00:13:49;102947.38;;;14.98;62.40
42647;BME280;31319;53.678;-6.254;2023-03-03T00:16:29;102942.97;;;14.97;63.07
42647;BME280;31319;53.678;-6.254;2023-03-03T00:18:56;102944.31;;;15.00;63.14
42647;BME280;31319;53.678;-6.254;2023-03-03T00:23:58;102949.59;;;14.96;64.33
42647;BME280;31319;53.678;-6.254;2023-03-03T00:26:34;102946.34;;;14.89;65.43
42647;BME280;31319;53.678;-6.254;2023-03-03T00:29:01;102952.69;;;14.90;66.07
42647;BME280;31319;53.678;-6.254;2023-03-03T00:31:43;102943.03;;;14.87;66.44
42647;BME280;31319;53.678;-6.254;2023-03-03T00:34:29;102946.09;;;14.86;67.44
42647;BME280;31319;53.678;-6.254;2023-03-03T00:36:56;102938.34;;;14.88;67.49
42647;BME280;31319;53.678;-6.254;2023-03-03T00:39:39;102944.75;;;14.83;68.11
42647;BME280;31319;53.678;-6.254;2023-03-03T00:42:12;102949.72;;;14.81;69.03
42647;BME280;31319;53.678;-6.254;2023-03-03T00:47:57;102943.03;;;14.87;69.10
42647;BME280;31319;53.678;-6.254;2023-03-03T00:50:42;102949.09;;;14.89;69.32
42647;BME280;31319;53.678;-6.254;2023-03-03T00:53:14;102950.44;;;14.92;69.11
42647;BME280;31319;53.678;-6.254;2023-03-03T00:55:44;102946.97;;;14.81;69.99
42647;BME280;31319;53.678;-6.254;2023-03-03T00:58:11;102941.22;;;14.78;70.79
42647;BME280;31319;53.678;-6.254;2023-03-03T01:00:37;102953.63;;;14.75;71.86
42647;BME280;31319;53.678;-6.254;2023-03-03T01:03:06;102948.13;;;14.75;72.30
42647;BME280;31319;53.678;-6.254;2023-03-03T01:05:32;102944.78;;;14.78;72.59
42647;BME280;31319;53.678;-6.254;2023-03-03T01:07:59;102951.41;;;14.77;73.10
42647;BME280;31319;53.678;-6.254;2023-03-03T01:10:26;102950.28;;;14.78;73.20
42647;BME280;31319;53.678;-6.254;2023-03-03T01:12:53;102950.06;;;14.75;74.36
42647;BME280;31319;53.678;-6.254;2023-03-03T01:15:19;102945.09;;;14.71;74.77
42647;BME280;31319;53.678;-6.254;2023-03-03T01:17:45;102943.16;;;14.77;74.83
42647;BME280;31319;53.678;-6.254;2023-03-03T01:20:13;102938.22;;;14.74;75.56
42647;BME280;31319;53.678;-6.254;2023-03-03T01:22:39;102943.97;;;14.78;75.89
42647;BME280;31319;53.678;-6.254;2023-03-03T01:25:05;102954.69;;;14.79;76.33
42647;BME280;31319;53.678;-6.254;2023-03-03T01:27:31;102945.94;;;14.72;78.26
42647;BME280;31319;53.678;-6.254;2023-03-03T01:29:57;102955.59;;;14.69;79.05
42647;BME280;31319;53.678;-6.254;2023-03-03T01:32:23;102964.06;;;14.73;79.01
42647;BME280;31319;53.678;-6.254;2023-03-03T01:34:50;102955.25;;;14.76;79.28
42647;BME280;31319;53.678;-6.254;2023-03-03T01:37:15;102950.88;;;14.75;80.00
42647;BME280;31319;53.678;-6.254;2023-03-03T01:39:41;102948.69;;;14.72;80.84
42647;BME280;31319;53.678;-6.254;2023-03-03T01:42:06;102951.72;;;14.70;81.73
42647;BME280;31319;53.678;-6.254;2023-03-03T01:44:33;102950.09;;;14.69;82.27
42647;BME280;31319;53.678;-6.254;2023-03-03T01:47:04;102953.66;;;14.70;82.77
42647;BME280;31319;53.678;-6.254;2023-03-03T01:49:40;102945.41;;;14.70;83.68
42647;BME280;31319;53.678;-6.254;2023-03-03T01:52:13;102953.69;;;14.65;84.99
42647;BME280;31319;53.678;-6.254;2023-03-03T01:54:49;102947.97;;;14.56;86.27
42647;BME280;31319;53.678;-6.254;2023-03-03T01:57:25;102951.03;;;14.55;86.70
42647;BME280;31319;53.678;-6.254;2023-03-03T01:59:53;102951.59;;;14.52;87.25
42647;BME280;31319;53.678;-6.254;2023-03-03T02:02:20;102956.28;;;14.51;87.67
42647;BME280;31319;53.678;-6.254;2023-03-03T02:04:46;102951.34;;;14.48;88.10
42647;BME280;31319;53.678;-6.254;2023-03-03T02:07:13;102957.13;;;14.41;89.90
42647;BME280;31319;53.678;-6.254;2023-03-03T02:10:04;102956.53;;;14.50;89.45
42647;BME280;31319;53.678;-6.254;2023-03-03T02:13:12;102956.31;;;14.41;91.17
42647;BME280;31319;53.678;-6.254;2023-03-03T02:15:21;102954.34;;;14.52;89.02
42647;BME280;31319;53.678;-6.254;2023-03-03T02:17:50;102953.53;;;14.51;90.02
42647;BME280;31319;53.678;-6.254;2023-03-03T02:23:49;102955.44;;;14.51;91.51
42647;BME280;31319;53.678;-6.254;2023-03-03T02:28:31;102958.47;;;14.49;92.55
42647;BME280;31319;53.678;-6.254;2023-03-03T02:30:58;102957.66;;;14.49;92.72
42647;BME280;31319;53.678;-6.254;2023-03-03T02:33:25;102959.31;;;14.44;93.72
42647;BME280;31319;53.678;-6.254;2023-03-03T02:35:51;102954.63;;;14.45;94.30
42647;BME280;31319;53.678;-6.254;2023-03-03T02:38:27;102959.34;;;14.39;97.03
42647;BME280;31319;53.678;-6.254;2023-03-03T02:46:14;102948.59;;;14.43;96.78
42647;BME280;31319;53.678;-6.254;2023-03-03T02:48:40;102949.97;;;14.40;97.94
42647;BME280;31319;53.678;-6.254;2023-03-03T02:51:06;102953.03;;;14.39;98.56
42647;BME280;31319;53.678;-6.254;2023-03-03T02:53:31;102953.03;;;14.39;99.17
42647;BME280;31319;53.678;-6.254;2023-03-03T02:55:57;102955.75;;;14.44;98.74
42647;BME280;31319;53.678;-6.254;2023-03-03T02:58:23;102952.44;;;14.42;99.36
42647;BME280;31319;53.678;-6.254;2023-03-03T03:00:48;102948.75;;;14.18;100.00
42647;BME280;31319;53.678;-6.254;2023-03-03T03:03:14;102962.50;;;14.18;100.00
42647;BME280;31319;53.678;-6.254;2023-03-03T03:05:40;102956.41;;;14.21;100.00
42647;BME280;31319;53.678;-6.254;2023-03-03T03:08:06;102955.06;;;14.18;100.00
42647;BME280;31319;53.678;-6.254;2023-03-03T03:10:31;102958.34;;;14.20;100.00
42647;BME280;31319;53.678;-6.254;2023-03-03T03:12:57;102953.66;;;14.21;100.00
42647;BME280;31319;53.678;-6.254;2023-03-03T03:15:22;102955.88;;;14.24;100.00
42647;BME280;31319;53.678;-6.254;2023-03-03T03:17:48;102947.34;;;14.20;100.00
42647;BME280;31319;53.678;-6.254;2023-03-03T03:20:14;102946.50;;;14.25;100.00
42647;BME280;31319;53.678;-6.254;2023-03-03T03:22:40;102953.13;;;14.24;100.00
42647;BME280;31319;53.678;-6.254;2023-03-03T03:25:06;102943.19;;;14.28;100.00
42647;BME280;31319;53.678;-6.254;2023-03-03T03:27:31;102946.50;;;14.30;100.00
42647;BME280;31319;53.678;-6.254;2023-03-03T03:29:57;102946.78;;;14.28;100.00
42647;BME280;31319;53.678;-6.254;2023-03-03T03:32:22;102953.09;;;14.29;100.00
42647;BME280;31319;53.678;-6.254;2023-03-03T03:34:48;102943.75;;;14.30;100.00
42647;BME280;31319;53.678;-6.254;2023-03-03T03:37:14;102944.28;;;14.27;100.00
42647;BME280;31319;53.678;-6.254;2023-03-03T03:39:40;102937.53;;;14.87;97.36
42647;BME280;31319;53.678;-6.254;2023-03-03T03:42:05;102942.28;;;15.11;91.74
42647;BME280;31319;53.678;-6.254;2023-03-03T03:44:31;102940.47;;;15.25;88.23
42647;BME280;31319;53.678;-6.254;2023-03-03T03:46:57;102933.84;;;15.26;87.42
42647;BME280;31319;53.678;-6.254;2023-03-03T03:49:22;102942.34;;;15.06;89.99
42647;BME280;31319;53.678;-6.254;2023-03-03T03:51:48;102938.09;;;14.89;92.86
42647;BME280;31319;53.678;-6.254;2023-03-03T03:54:13;102942.78;;;14.55;100.00
42647;BME280;31319;53.678;-6.254;2023-03-03T03:56:39;102946.66;;;14.49;100.00
42647;BME280;31319;53.678;-6.254;2023-03-03T03:59:06;102941.63;;;14.61;100.00
42647;BME280;31319;53.678;-6.254;2023-03-03T04:01:31;102938.91;;;14.56;100.00
42647;BME280;31319;53.678;-6.254;2023-03-03T04:03:57;102942.44;;;14.12;100.00
42647;BME280;31319;53.678;-6.254;2023-03-03T04:06:23;102943.44;;;14.36;100.00
42647;BME280;31319;53.678;-6.254;2023-03-03T04:08:48;102943.88;;;14.54;100.00
42647;BME280;31319;53.678;-6.254;2023-03-03T04:11:14;102936.25;;;14.35;100.00
42647;BME280;31319;53.678;-6.254;2023-03-03T04:13:39;102928.91;;;14.65;100.00
42647;BME280;31319;53.678;-6.254;2023-03-03T04:16:05;102929.69;;;14.76;99.74
42647;BME280;31319;53.678;-6.254;2023-03-03T04:18:31;102934.91;;;14.72;100.00
42647;BME280;31319;53.678;-6.254;2023-03-03T04:20:56;102936.53;;;14.78;99.56
42647;BME280;31319;53.678;-6.254;2023-03-03T04:23:22;102936.34;;;14.25;100.00
42647;BME280;31319;53.678;-6.254;2023-03-03T04:25:48;102944.16;;;14.03;100.00
42647;BME280;31319;53.678;-6.254;2023-03-03T04:28:17;102942.44;;;14.12;100.00
42647;BME280;31319;53.678;-6.254;2023-03-03T04:30:43;102948.75;;;14.18;100.00
42647;BME280;31319;53.678;-6.254;2023-03-03T04:33:08;102947.91;;;14.22;100.00
42647;BME280;31319;53.678;-6.254;2023-03-03T04:35:34;102948.22;;;14.15;100.00
42647;BME280;31319;53.678;-6.254;2023-03-03T04:37:59;102941.84;;;14.25;100.00
42647;BME280;31319;53.678;-6.254;2023-03-03T04:40:25;102944.06;;;14.23;100.00
42647;BME280;31319;53.678;-6.254;2023-03-03T04:42:51;102943.19;;;14.28;100.00
42647;BME280;31319;53.678;-6.254;2023-03-03T04:45:16;102951.38;;;14.38;100.00
42647;BME280;31319;53.678;-6.254;2023-03-03T04:47:42;102941.53;;;14.32;100.00
42647;BME280;31319;53.678;-6.254;2023-03-03T04:50:09;102947.63;;;14.24;100.00
42647;BME280;31319;53.678;-6.254;2023-03-03T04:52:35;102944.06;;;14.23;100.00
42647;BME280;31319;53.678;-6.254;2023-03-03T04:55:00;102957.50;;;14.25;100.00
42647;BME280;31319;53.678;-6.254;2023-03-03T04:57:26;102945.78;;;14.09;100.00
42647;BME280;31319;53.678;-6.254;2023-03-03T04:59:52;102948.53;;;14.09;100.00
42647;BME280;31319;53.678;-6.254;2023-03-03T05:02:18;102950.69;;;14.12;100.00
42647;BME280;31319;53.678;-6.254;2023-03-03T05:04:43;102948.03;;;13.97;100.00
42647;BME280;31319;53.678;-6.254;2023-03-03T05:07:09;102946.22;;;13.77;100.00
42647;BME280;31319;53.678;-6.254;2023-03-03T05:09:35;102953.13;;;13.64;100.00
42647;BME280;31319;53.678;-6.254;2023-03-03T05:12:01;102952.31;;;13.58;100.00
42647;BME280;31319;53.678;-6.254;2023-03-03T05:14:27;102943.78;;;13.65;99.58
42647;BME280;31319;53.678;-6.254;2023-03-03T05:16:52;102952.88;;;13.60;96.64
42647;BME280;31319;53.678;-6.254;2023-03-03T05:19:18;102943.19;;;13.73;94.41
42647;BME280;31319;53.678;-6.254;2023-03-03T05:21:44;102946.97;;;13.87;89.54
42647;BME280;31319;53.678;-6.254;2023-03-03T05:24:10;102951.47;;;13.68;91.46
42647;BME280;31319;53.678;-6.254;2023-03-03T05:26:36;102947.28;;;13.81;90.73
42647;BME280;31319;53.678;-6.254;2023-03-03T05:29:03;102947.25;;;13.91;87.75
42647;BME280;31319;53.678;-6.254;2023-03-03T05:31:28;102954.47;;;13.72;92.26
42647;BME280;31319;53.678;-6.254;2023-03-03T05:33:54;102954.16;;;13.78;95.74
42647;BME280;31319;53.678;-6.254;2023-03-03T05:36:20;102956.94;;;13.73;100.00
42647;BME280;31319;53.678;-6.254;2023-03-03T05:38:45;102958.03;;;13.67;100.00
42647;BME280;31319;53.678;-6.254;2023-03-03T05:41:11;102959.97;;;13.67;100.00
42647;BME280;31319;53.678;-6.254;2023-03-03T05:43:37;102956.69;;;13.59;100.00
42647;BME280;31319;53.678;-6.254;2023-03-03T05:46:02;102959.75;;;13.48;100.00
42647;BME280;31319;53.678;-6.254;2023-03-03T05:48:28;102959.19;;;13.56;100.00
42647;BME280;31319;53.678;-6.254;2023-03-03T05:50:57;102950.91;;;13.66;99.90
42647;BME280;31319;53.678;-6.254;2023-03-03T05:53:22;102955.56;;;13.76;97.30
42647;BME280;31319;53.678;-6.254;2023-03-03T05:55:48;102946.50;;;13.70;98.53
42647;BME280;31319;53.678;-6.254;2023-03-03T05:58:13;102945.19;;;13.52;100.00
42647;BME280;31319;53.678;-6.254;2023-03-03T06:00:39;102950.13;;;13.50;100.00
42647;BME280;31319;53.678;-6.254;2023-03-03T06:03:05;102949.84;;;13.57;99.70
42647;BME280;31319;53.678;-6.254;2023-03-03T06:05:30;102951.44;;;13.73;93.03
42647;BME280;31319;53.678;-6.254;2023-03-03T06:07:56;102944.28;;;13.77;90.58
42647;BME280;31319;53.678;-6.254;2023-03-03T06:10:22;102952.25;;;13.74;89.41
42647;BME280;31319;53.678;-6.254;2023-03-03T06:12:47;102956.56;;;13.90;85.89
42647;BME280;31319;53.678;-6.254;2023-03-03T06:15:13;102949.56;;;13.64;94.67
42647;BME280;31319;53.678;-6.254;2023-03-03T06:17:38;102955.59;;;13.66;100.00
42647;BME280;31319;53.678;-6.254;2023-03-03T06:20:05;102952.00;;;13.60;100.00
42647;BME280;31319;53.678;-6.254;2023-03-03T06:22:31;102958.91;;;13.63;100.00
42647;BME280;31319;53.678;-6.254;2023-03-03T06:24:57;102965.75;;;13.70;100.00
42647;BME280;31319;53.678;-6.254;2023-03-03T06:27:22;102955.09;;;13.43;100.00
42647;BME280;31319;53.678;-6.254;2023-03-03T06:29:48;102964.69;;;13.51;100.00
42647;BME280;31319;53.678;-6.254;2023-03-03T06:32:13;102965.28;;;13.27;100.00
42647;BME280;31319;53.678;-6.254;2023-03-03T06:34:39;102962.53;;;13.38;100.00
42647;BME280;31319;53.678;-6.254;2023-03-03T06:37:05;102968.56;;;13.40;100.00
42647;BME280;31319;53.678;-6.254;2023-03-03T06:39:30;102968.81;;;13.53;100.00
42647;BME280;31319;53.678;-6.254;2023-03-03T06:41:56;102972.97;;;13.46;100.00
42647;BME280;31319;53.678;-6.254;2023-03-03T06:44:22;102980.41;;;13.20;98.91
42647;BME280;31319;53.678;-6.254;2023-03-03T06:46:48;102982.03;;;13.00;93.42
42647;BME280;31319;53.678;-6.254;2023-03-03T06:49:13;102982.28;;;12.84;93.06
42647;BME280;31319;53.678;-6.254;2023-03-03T06:51:39;102992.19;;;12.80;93.58
42647;BME280;31319;53.678;-6.254;2023-03-03T06:54:16;102987.78;;;12.99;91.79
42647;BME280;31319;53.678;-6.254;2023-03-03T06:56:44;102993.56;;;12.97;95.31
42647;BME280;31319;53.678;-6.254;2023-03-03T06:59:17;102993.84;;;13.01;99.41
42647;BME280;31319;53.678;-6.254;2023-03-03T07:01:46;103002.34;;;12.94;100.00
42647;BME280;31319;53.678;-6.254;2023-03-03T07:06:47;103001.50;;;12.89;100.00
42647;BME280;31319;53.678;-6.254;2023-03-03T07:09:27;103008.59;;;12.59;100.00
42647;BME280;31319;53.678;-6.254;2023-03-03T07:11:59;103004.75;;;12.60;97.92
42647;BME280;31319;53.678;-6.254;2023-03-03T07:14:25;103011.91;;;12.61;94.00
42647;BME280;31319;53.678;-6.254;2023-03-03T07:16:59;103013.00;;;12.75;95.39
42647;BME280;31319;53.678;-6.254;2023-03-03T07:19:31;103009.47;;;12.70;91.09
42647;BME280;31319;53.678;-6.254;2023-03-03T07:21:57;103014.97;;;12.85;86.31
42647;BME280;31319;53.678;-6.254;2023-03-03T07:24:26;103008.09;;;12.62;87.44
42647;BME280;31319;53.678;-6.254;2023-03-03T07:27:05;103018.50;;;12.70;87.75
42647;BME280;31319;53.678;-6.254;2023-03-03T07:29:36;103014.06;;;12.54;89.69
42647;BME280;31319;53.678;-6.254;2023-03-03T07:34:55;103022.38;;;12.80;88.51
42647;BME280;31319;53.678;-6.254;2023-03-03T07:37:38;103016.31;;;12.67;90.57
42647;BME280;31319;53.678;-6.254;2023-03-03T07:40:32;103016.28;;;12.52;96.06
42647;BME280;31319;53.678;-6.254;2023-03-03T07:43:24;103021.22;;;12.50;93.55
42647;BME280;31319;53.678;-6.254;2023-03-03T07:45:46;103022.00;;;12.40;90.79
42647;BME280;31319;53.678;-6.254;2023-03-03T07:50:38;103028.34;;;12.56;90.88
42647;BME280;31319;53.678;-6.254;2023-03-03T07:53:13;103031.13;;;12.82;89.43
42647;BME280;31319;53.678;-6.254;2023-03-03T07:55:39;103028.13;;;12.78;91.87
42647;BME280;31319;53.678;-6.254;2023-03-03T08:03:27;103042.63;;;12.68;92.10
42647;BME280;31319;53.678;-6.254;2023-03-03T08:05:53;103042.59;;;12.53;94.89
42647;BME280;31319;53.678;-6.254;2023-03-03T08:10:58;103045.41;;;12.84;89.51
42647;BME280;31319;53.678;-6.254;2023-03-03T08:13:32;103050.25;;;12.46;94.87
42647;BME280;31319;53.678;-6.254;2023-03-03T08:18:51;103053.56;;;12.48;89.23
42647;BME280;31319;53.678;-6.254;2023-03-03T08:21:20;103045.13;;;12.80;85.39
42647;BME280;31319;53.678;-6.254;2023-03-03T08:23:46;103061.97;;;12.21;97.89
42647;BME280;31319;53.678;-6.254;2023-03-03T08:26:13;103055.22;;;12.59;93.76
42647;BME280;31319;53.678;-6.254;2023-03-03T08:28:39;103056.59;;;12.62;100.00
42647;BME280;31319;53.678;-6.254;2023-03-03T08:31:04;103053.84;;;12.62;99.11
42647;BME280;31319;53.678;-6.254;2023-03-03T08:33:30;103064.00;;;12.61;100.00
42647;BME280;31319;53.678;-6.254;2023-03-03T08:35:56;103067.88;;;12.75;96.44
42647;BME280;31319;53.678;-6.254;2023-03-03T08:38:21;103067.34;;;12.84;95.26
42647;BME280;31319;53.678;-6.254;2023-03-03T08:40:48;103070.88;;;12.64;96.62
42647;BME280;31319;53.678;-6.254;2023-03-03T08:43:15;103063.22;;;12.76;96.70
42647;BME280;31319;53.678;-6.254;2023-03-03T08:45:50;103066.25;;;12.80;94.74
42647;BME280;31319;53.678;-6.254;2023-03-03T08:48:16;103082.13;;;12.67;90.89
42647;BME280;31319;53.678;-6.254;2023-03-03T08:50:42;103073.31;;;12.50;93.45
42647;BME280;31319;53.678;-6.254;2023-03-03T08:53:09;103075.81;;;12.57;94.70
42647;BME280;31319;53.678;-6.254;2023-03-03T08:55:35;103080.22;;;12.63;93.09
42647;BME280;31319;53.678;-6.254;2023-03-03T08:58:01;103087.56;;;12.47;95.68
42647;BME280;31319;53.678;-6.254;2023-03-03T09:00:26;103090.38;;;12.62;90.06
42647;BME280;31319;53.678;-6.254;2023-03-03T09:02:53;103086.22;;;12.60;94.39
42647;BME280;31319;53.678;-6.254;2023-03-03T09:05:20;103089.03;;;12.90;92.12
42647;BME280;31319;53.678;-6.254;2023-03-03T09:07:46;103087.56;;;12.47;94.88
42647;BME280;31319;53.678;-6.254;2023-03-03T09:10:15;103091.19;;;12.63;93.18
42647;BME280;31319;53.678;-6.254;2023-03-03T09:12:46;103086.00;;;12.76;93.89
42647;BME280;31319;53.678;-6.254;2023-03-03T09:15:28;103093.97;;;12.78;90.57
42647;BME280;31319;53.678;-6.254;2023-03-03T09:18:04;103093.72;;;12.90;91.52
42647;BME280;31319;53.678;-6.254;2023-03-03T09:20:38;103090.72;;;13.01;91.07
42647;BME280;31319;53.678;-6.254;2023-03-03T09:25:49;103100.75;;;12.60;93.98
42647;BME280;31319;53.678;-6.254;2023-03-03T09:28:25;103099.22;;;13.00;91.37
42647;BME280;31319;53.678;-6.254;2023-03-03T09:30:52;103104.78;;;13.25;87.97
42647;BME280;31319;53.678;-6.254;2023-03-03T09:36:22;103113.72;;;12.80;89.33
42647;BME280;31319;53.678;-6.254;2023-03-03T09:38:49;103113.56;;;13.32;88.47
42647;BME280;31319;53.678;-6.254;2023-03-03T09:44:29;103111.91;;;13.57;85.53
42647;BME280;31319;53.678;-6.254;2023-03-03T10:03:36;103127.84;;;13.75;78.02
42647;BME280;31319;53.678;-6.254;2023-03-03T10:06:27;103133.31;;;13.65;80.23
42647;BME280;31319;53.678;-6.254;2023-03-03T10:09:09;103131.69;;;13.49;81.60
42647;BME280;31319;53.678;-6.254;2023-03-03T10:14:54;103130.03;;;13.48;84.48
42647;BME280;31319;53.678;-6.254;2023-03-03T10:23:19;103143.63;;;14.34;80.10
42647;BME280;31319;53.678;-6.254;2023-03-03T10:29:10;103145.84;;;14.37;82.50
42647;BME280;31319;53.678;-6.254;2023-03-03T10:37:47;103151.06;;;14.39;76.87
42647;BME280;31319;53.678;-6.254;2023-03-03T10:43:05;103159.06;;;14.20;79.79
42647;BME280;31319;53.678;-6.254;2023-03-03T10:54:54;103156.78;;;14.58;79.88
42647;BME280;31319;53.678;-6.254;2023-03-03T11:00:22;103170.72;;;14.82;75.47
42647;BME280;31319;53.678;-6.254;2023-03-03T11:06:01;103167.84;;;15.02;76.05
42647;BME280;31319;53.678;-6.254;2023-03-03T11:08:37;103165.81;;;15.18;72.76
42647;BME280;31319;53.678;-6.254;2023-03-03T11:11:31;103167.84;;;15.02;72.71
42647;BME280;31319;53.678;-6.254;2023-03-03T11:16:53;103167.28;;;14.46;73.43
42647;BME280;31319;53.678;-6.254;2023-03-03T11:19:38;103175.81;;;14.49;79.01
42647;BME280;31319;53.678;-6.254;2023-03-03T11:25:13;103176.78;;;14.79;75.63
42647;BME280;31319;53.678;-6.254;2023-03-03T11:30:33;103176.25;;;14.71;74.99
42647;BME280;31319;53.678;-6.254;2023-03-03T11:33:43;103182.56;;;14.82;74.48
42647;BME280;31319;53.678;-6.254;2023-03-03T11:36:57;103176.84;;;14.58;73.48
42647;BME280;31319;53.678;-6.254;2023-03-03T11:39:26;103176.88;;;15.13;72.13
42647;BME280;31319;53.678;-6.254;2023-03-03T11:45:02;103180.19;;;15.10;71.09
42647;BME280;31319;53.678;-6.254;2023-03-03T11:47:48;103181.31;;;15.09;73.15
42647;BME280;31319;53.678;-6.254;2023-03-03T11:50:20;103184.22;;;14.73;75.04
42647;BME280;31319;53.678;-6.254;2023-03-03T11:53:04;103193.28;;;14.89;76.93
42647;BME280;31319;53.678;-6.254;2023-03-03T11:55:38;103179.06;;;14.61;80.00
42647;BME280;31319;53.678;-6.254;2023-03-03T12:00:44;103189.84;;;14.32;87.79
42647;BME280;31319;53.678;-6.254;2023-03-03T12:03:33;103182.47;;;14.18;89.97
42647;BME280;31319;53.678;-6.254;2023-03-03T12:19:56;103196.38;;;14.67;77.19
42647;BME280;31319;53.678;-6.254;2023-03-03T12:22:34;103185.03;;;14.84;76.70
42647;BME280;31319;53.678;-6.254;2023-03-03T12:25:17;103185.94;;;14.64;77.31
42647;BME280;31319;53.678;-6.254;2023-03-03T12:33:14;103182.63;;;14.62;75.25
42647;BME280;31319;53.678;-6.254;2023-03-03T12:49:11;103184.88;;;15.09;66.57
42647;BME280;31319;53.678;-6.254;2023-03-03T12:52:12;103186.81;;;15.04;65.56
42647;BME280;31319;53.678;-6.254;2023-03-03T13:00:42;103170.16;;;14.85;63.47
42647;BME280;31319;53.678;-6.254;2023-03-03T13:09:08;103162.00;;;15.19;61.90
42647;BME280;31319;53.678;-6.254;2023-03-03T13:12:02;103158.75;;;15.02;61.95
42647;BME280;31319;53.678;-6.254;2023-03-03T13:14:50;103162.72;;;15.30;61.43
42647;BME280;31319;53.678;-6.254;2023-03-03T13:22:56;103151.88;;;15.04;63.23
42647;BME280;31319;53.678;-6.254;2023-03-03T13:30:49;103134.66;;;15.27;60.81
42647;BME280;31319;53.678;-6.254;2023-03-03T13:33:33;103139.34;;;15.27;61.15
42647;BME280;31319;53.678;-6.254;2023-03-03T13:36:02;103145.47;;;15.19;60.69
42647;BME280;31319;53.678;-6.254;2023-03-03T13:38:34;103145.66;;;15.27;61.29
42647;BME280;31319;53.678;-6.254;2023-03-03T13:44:08;103143.56;;;15.09;61.24
42647;BME280;31319;53.678;-6.254;2023-03-03T13:46:59;103132.16;;;15.26;60.15
42647;BME280;31319;53.678;-6.254;2023-03-03T13:52:20;103133.22;;;15.35;58.95
42647;BME280;31319;53.678;-6.254;2023-03-03T14:00:53;103128.88;;;15.24;58.10
42647;BME280;31319;53.678;-6.254;2023-03-03T14:03:51;103132.66;;;15.33;58.72
42647;BME280;31319;53.678;-6.254;2023-03-03T14:06:23;103129.25;;;15.12;57.00
42647;BME280;31319;53.678;-6.254;2023-03-03T14:14:41;103133.59;;;15.18;57.08
42647;BME280;31319;53.678;-6.254;2023-03-03T14:17:24;103132.31;;;15.06;58.11
42647;BME280;31319;53.678;-6.254;2023-03-03T14:20:22;103133.19;;;14.96;59.30
42647;BME280;31319;53.678;-6.254;2023-03-03T14:22:52;103131.31;;;14.86;59.40
42647;BME280;31319;53.678;-6.254;2023-03-03T14:25:19;103135.53;;;14.74;61.75
42647;BME280;31319;53.678;-6.254;2023-03-03T14:35:42;103137.31;;;14.34;64.66
42647;BME280;31319;53.678;-6.254;2023-03-03T14:38:11;103137.28;;;14.49;65.90
42647;BME280;31319;53.678;-6.254;2023-03-03T14:40:38;103137.25;;;14.59;64.22
42647;BME280;31319;53.678;-6.254;2023-03-03T14:43:55;103126.56;;;14.53;63.16
42647;BME280;31319;53.678;-6.254;2023-03-03T14:48:57;103127.91;;;14.60;60.77
42647;BME280;31319;53.678;-6.254;2023-03-03T14:51:25;103136.47;;;14.49;59.12
42647;BME280;31319;53.678;-6.254;2023-03-03T14:53:54;103128.88;;;14.80;58.38
42647;BME280;31319;53.678;-6.254;2023-03-03T14:56:22;103118.88;;;14.39;60.28
42647;BME280;31319;53.678;-6.254;2023-03-03T14:58:50;103126.03;;;14.46;62.63
42647;BME280;31319;53.678;-6.254;2023-03-03T15:01:32;103131.31;;;14.22;65.79
42647;BME280;31319;53.678;-6.254;2023-03-03T15:04:21;103127.00;;;14.75;67.29
42647;BME280;31319;53.678;-6.254;2023-03-03T15:06:53;103121.50;;;14.70;65.44
42647;BME280;31319;53.678;-6.254;2023-03-03T15:09:36;103118.78;;;14.65;63.33
42647;BME280;31319;53.678;-6.254;2023-03-03T15:15:16;103117.75;;;14.40;62.38
42647;BME280;31319;53.678;-6.254;2023-03-03T15:17:53;103108.97;;;14.43;63.10
42647;BME280;31319;53.678;-6.254;2023-03-03T15:20:40;103116.59;;;14.62;61.79
42647;BME280;31319;53.678;-6.254;2023-03-03T15:25:57;103107.84;;;14.50;61.38
42647;BME280;31319;53.678;-6.254;2023-03-03T15:33:45;103112.06;;;14.86;60.85
42647;BME280;31319;53.678;-6.254;2023-03-03T15:39:07;103108.41;;;14.96;59.63
42647;BME280;31319;53.678;-6.254;2023-03-03T15:44:13;103111.16;;;14.96;58.85
42647;BME280;31319;53.678;-6.254;2023-03-03T15:52:50;103113.34;;;15.04;58.49
42647;BME280;31319;53.678;-6.254;2023-03-03T15:55:28;103103.78;;;14.91;59.48
42647;BME280;31319;53.678;-6.254;2023-03-03T16:03:31;103102.38;;;14.94;59.58
42647;BME280;31319;53.678;-6.254;2023-03-03T16:08:56;103103.88;;;14.71;59.67
42647;BME280;31319;53.678;-6.254;2023-03-03T16:11:31;103105.94;;;14.94;59.17
42647;BME280;31319;53.678;-6.254;2023-03-03T16:27:18;103116.53;;;13.87;56.58
42647;BME280;31319;53.678;-6.254;2023-03-03T16:32:47;103119.03;;;13.83;55.58
42647;BME280;31319;53.678;-6.254;2023-03-03T16:35:25;103114.09;;;13.65;54.25
42647;BME280;31319;53.678;-6.254;2023-03-03T16:38:01;103122.63;;;13.64;54.77
42647;BME280;31319;53.678;-6.254;2023-03-03T16:40:44;103119.31;;;13.72;54.28
42647;BME280;31319;53.678;-6.254;2023-03-03T16:45:39;103111.84;;;14.08;53.93
42647;BME280;31319;53.678;-6.254;2023-03-03T16:53:51;103118.47;;;13.92;57.17
42647;BME280;31319;53.678;-6.254;2023-03-03T16:56:24;103107.69;;;14.05;57.19
42647;BME280;31319;53.678;-6.254;2023-03-03T17:04:35;103109.69;;;13.84;57.41
42647;BME280;31319;53.678;-6.254;2023-03-03T17:12:57;103115.41;;;14.08;57.00
42647;BME280;31319;53.678;-6.254;2023-03-03T17:20:59;103119.22;;;14.12;55.83
42647;BME280;31319;53.678;-6.254;2023-03-03T17:29:17;103124.97;;;14.26;55.09